createdAt,value
2022-09-06T00:00:26.886Z,2
2022-09-06T00:02:24.041Z,2
2022-09-06T00:04:27.140Z,2
2022-09-06T00:06:23.912Z,2
2022-09-06T00:08:24.093Z,2
2022-09-06T00:10:24.670Z,4
2022-09-06T00:12:24.201Z,4
2022-09-06T00:14:24.227Z,4
2022-09-06T00:16:27.383Z,4
2022-09-06T00:18:23.975Z,4
2022-09-06T00:20:24.157Z,4
2022-09-06T00:22:24.097Z,1
2022-09-06T00:24:24.536Z,1
2022-09-06T00:26:24.242Z,1
2022-09-06T00:28:24.636Z,4
2022-09-06T00:30:23.978Z,4
2022-09-06T00:32:24.505Z,4
2022-09-06T00:34:24.077Z,1
2022-09-06T00:36:23.922Z,1
2022-09-06T00:38:24.429Z,1
2022-09-06T00:40:24.401Z,4
2022-09-06T00:42:24.672Z,4
2022-09-06T00:44:24.037Z,4
2022-09-06T00:46:24.164Z,2
2022-09-06T00:48:24.351Z,2
2022-09-06T00:50:24.329Z,2
2022-09-06T00:52:24.247Z,1
2022-09-06T00:54:24.627Z,1
2022-09-06T00:56:23.804Z,1
2022-09-06T00:58:23.825Z,1
2022-09-06T01:00:27.234Z,1
2022-09-06T01:02:24.892Z,1
2022-09-06T01:04:23.995Z,0
2022-09-06T01:06:24.369Z,0
2022-09-06T01:08:23.918Z,0
2022-09-06T01:10:24.265Z,0
2022-09-06T01:12:24.206Z,0
2022-09-06T01:14:24.250Z,0
2022-09-06T01:16:24.470Z,0
2022-09-06T01:18:23.774Z,0
2022-09-06T01:20:23.770Z,0
2022-09-06T01:22:24.176Z,0
2022-09-06T01:24:23.942Z,0
2022-09-06T01:26:23.995Z,0
2022-09-06T01:28:23.961Z,0
2022-09-06T01:30:23.876Z,0
2022-09-06T01:32:24.239Z,0
2022-09-06T01:34:23.854Z,0
2022-09-06T01:36:24.248Z,0
2022-09-06T01:38:24.557Z,0
2022-09-06T01:40:24.212Z,0
2022-09-06T01:42:23.801Z,0
2022-09-06T01:44:24.394Z,0
2022-09-06T01:46:24.028Z,0
2022-09-06T01:48:23.756Z,0
2022-09-06T01:50:23.931Z,0
2022-09-06T01:52:24.014Z,0
2022-09-06T01:54:23.880Z,0
2022-09-06T01:56:24.414Z,0
2022-09-06T01:58:24.475Z,0
2022-09-06T02:00:26.580Z,0
2022-09-06T02:02:24.018Z,0
2022-09-06T02:04:24.498Z,0
2022-09-06T02:06:24.299Z,0
2022-09-06T02:08:24.699Z,0
2022-09-06T02:10:24.471Z,0
2022-09-06T02:12:23.750Z,0
2022-09-06T02:14:24.245Z,0
2022-09-06T02:16:24.649Z,0
2022-09-06T02:18:24.866Z,0
2022-09-06T02:20:24.055Z,0
2022-09-06T02:22:24.569Z,0
2022-09-06T02:24:24.765Z,0
2022-09-06T02:26:23.946Z,0
2022-09-06T02:28:24.682Z,0
2022-09-06T02:30:24.078Z,0
2022-09-06T02:32:24.212Z,0
2022-09-06T02:34:24.526Z,0
2022-09-06T02:36:24.049Z,0
2022-09-06T02:38:24.160Z,0
2022-09-06T02:40:24.251Z,0
2022-09-06T02:42:24.194Z,0
2022-09-06T02:44:24.392Z,0
2022-09-06T02:46:24.928Z,0
2022-09-06T02:48:24.361Z,0
2022-09-06T02:50:24.402Z,0
2022-09-06T02:52:24.378Z,0
2022-09-06T02:54:24.323Z,0
2022-09-06T02:56:24.732Z,0
2022-09-06T02:58:24.697Z,0
2022-09-06T03:00:26.615Z,0
2022-09-06T03:02:24.458Z,0
2022-09-06T03:04:24.302Z,0
2022-09-06T03:06:23.765Z,0
2022-09-06T03:08:23.952Z,0
2022-09-06T03:10:24.516Z,0
2022-09-06T03:12:24.208Z,0
2022-09-06T03:14:24.673Z,0
2022-09-06T03:16:24.059Z,0
2022-09-06T03:18:24.202Z,0
2022-09-06T03:20:24.538Z,0
2022-09-06T03:22:24.077Z,0
2022-09-06T03:24:24.047Z,0
2022-09-06T03:26:24.088Z,0
2022-09-06T03:28:23.982Z,0
2022-09-06T03:30:24.441Z,0
2022-09-06T03:32:23.963Z,0
2022-09-06T03:34:24.490Z,0
2022-09-06T03:36:24.040Z,0
2022-09-06T03:38:24.658Z,0
2022-09-06T03:40:24.481Z,0
2022-09-06T03:42:24.105Z,0
2022-09-06T03:44:23.807Z,0
2022-09-06T03:46:24.402Z,0
2022-09-06T03:48:23.855Z,0
2022-09-06T03:50:24.241Z,0
2022-09-06T03:52:24.354Z,0
2022-09-06T03:54:24.596Z,0
2022-09-06T03:56:24.221Z,0
2022-09-06T03:58:24.561Z,0
2022-09-06T04:00:26.779Z,0
2022-09-06T04:02:24.243Z,0
2022-09-06T04:04:24.656Z,0
2022-09-06T04:06:24.411Z,0
2022-09-06T04:08:24.062Z,0
2022-09-06T04:10:24.328Z,0
2022-09-06T04:12:23.924Z,0
2022-09-06T04:14:24.633Z,0
2022-09-06T04:16:24.301Z,0
2022-09-06T04:18:29.900Z,0
2022-09-06T04:20:24.585Z,1
2022-09-06T04:22:24.156Z,1
2022-09-06T04:24:24.641Z,1
2022-09-06T04:26:24.597Z,1
2022-09-06T04:28:24.421Z,1
2022-09-06T04:30:24.003Z,1
2022-09-06T04:32:24.195Z,1
2022-09-06T04:34:23.963Z,1
2022-09-06T04:36:24.048Z,1
2022-09-06T04:38:24.172Z,1
2022-09-06T04:40:24.433Z,1
2022-09-06T04:42:24.652Z,1
2022-09-06T04:44:24.323Z,1
2022-09-06T04:46:24.069Z,1
2022-09-06T04:48:24.418Z,1
2022-09-06T04:50:24.644Z,2
2022-09-06T04:52:27.050Z,2
2022-09-06T04:54:24.616Z,2
2022-09-06T04:56:24.639Z,2
2022-09-06T04:58:24.556Z,2
2022-09-06T05:00:25.192Z,2
2022-09-06T05:02:24.285Z,2
2022-09-06T05:04:24.807Z,2
2022-09-06T05:06:24.274Z,2
2022-09-06T05:08:24.263Z,2
2022-09-06T05:10:24.280Z,2
2022-09-06T05:12:24.050Z,2
2022-09-06T05:14:24.275Z,2
2022-09-06T05:16:24.509Z,2
2022-09-06T05:18:27.865Z,2
2022-09-06T05:20:24.640Z,2
2022-09-06T05:22:23.924Z,2
2022-09-06T05:24:24.239Z,2
2022-09-06T05:26:23.975Z,2
2022-09-06T05:28:24.663Z,2
2022-09-06T05:30:24.227Z,2
2022-09-06T05:32:24.202Z,2
2022-09-06T05:34:24.304Z,2
2022-09-06T05:36:24.598Z,2
2022-09-06T05:38:24.319Z,2
2022-09-06T05:40:24.850Z,2
2022-09-06T05:42:30.359Z,2
2022-09-06T05:44:24.353Z,2
2022-09-06T05:46:24.703Z,2
2022-09-06T05:48:23.837Z,2
2022-09-06T05:50:24.572Z,2
2022-09-06T05:52:24.573Z,1
2022-09-06T05:54:24.105Z,1
2022-09-06T05:56:24.483Z,1
2022-09-06T05:58:24.478Z,1
2022-09-06T06:00:26.885Z,1
2022-09-06T06:02:29.810Z,1
2022-09-06T06:04:24.245Z,1
2022-09-06T06:06:24.443Z,1
2022-09-06T06:08:24.030Z,1
2022-09-06T06:10:24.044Z,1
2022-09-06T06:12:24.270Z,1
2022-09-06T06:14:23.701Z,1
2022-09-06T06:16:24.204Z,1
2022-09-06T06:18:23.933Z,1
2022-09-06T06:20:24.222Z,1
2022-09-06T06:22:24.318Z,1
2022-09-06T06:24:24.295Z,0
2022-09-06T06:26:23.966Z,0
2022-09-06T06:28:24.335Z,0
2022-09-06T06:30:29.650Z,0
2022-09-06T06:32:24.282Z,0
2022-09-06T06:34:24.263Z,0
2022-09-06T06:36:23.789Z,0
2022-09-06T06:38:24.246Z,0
2022-09-06T06:40:24.536Z,0
2022-09-06T06:42:23.807Z,0
2022-09-06T06:44:24.269Z,0
2022-09-06T06:46:24.872Z,0
2022-09-06T06:48:23.831Z,0
2022-09-06T06:50:24.405Z,0
2022-09-06T06:52:23.808Z,0
2022-09-06T06:54:24.314Z,2
2022-09-06T06:56:24.183Z,2
2022-09-06T06:58:24.630Z,2
2022-09-06T07:00:28.319Z,2
2022-09-06T07:02:24.932Z,2
2022-09-06T07:04:24.508Z,2
2022-09-06T07:07:36.623Z,2
2022-09-06T07:10:54.265Z,2
2022-09-06T07:14:24.400Z,2
2022-09-06T07:18:24.409Z,2
2022-09-06T07:22:28.434Z,2
2022-09-06T07:24:27.440Z,2
2022-09-06T07:26:24.193Z,1
2022-09-06T07:28:28.445Z,1
2022-09-06T07:30:24.122Z,1
2022-09-06T07:32:31.865Z,1
2022-09-06T07:34:24.636Z,1
2022-09-06T07:36:24.341Z,1
2022-09-06T07:38:24.597Z,1
2022-09-06T07:40:24.601Z,1
2022-09-06T07:42:23.868Z,1
2022-09-06T07:44:24.159Z,1
2022-09-06T07:46:23.966Z,1
2022-09-06T07:48:24.171Z,1
2022-09-06T07:50:59.930Z,1
2022-09-06T07:53:42.505Z,1
2022-09-06T07:54:51.096Z,1
2022-09-06T07:58:23.771Z,1
2022-09-06T08:02:23.966Z,1
2022-09-06T08:10:28.327Z,1
2022-09-06T08:12:23.885Z,1
2022-09-06T08:14:24.420Z,1
2022-09-06T08:16:24.136Z,1
2022-09-06T08:18:24.067Z,1
2022-09-06T08:20:24.501Z,1
2022-09-06T08:22:24.553Z,1
2022-09-06T08:24:23.839Z,1
2022-09-06T08:26:24.052Z,1
2022-09-06T08:28:25.663Z,2
2022-09-06T08:30:24.605Z,2
2022-09-06T08:32:24.812Z,2
2022-09-06T08:34:23.955Z,2
2022-09-06T08:36:24.550Z,2
2022-09-06T08:38:24.324Z,2
2022-09-06T08:40:24.623Z,2
2022-09-06T08:42:23.797Z,2
2022-09-06T08:45:10.045Z,2
2022-09-06T08:46:24.692Z,2
2022-09-06T08:48:24.106Z,2
2022-09-06T08:50:23.781Z,2
2022-09-06T08:52:24.532Z,2
2022-09-06T08:54:24.268Z,2
2022-09-06T08:56:23.886Z,2
2022-09-06T08:58:24.152Z,2
2022-09-06T09:00:33.762Z,2
2022-09-06T09:02:24.805Z,2
2022-09-06T09:04:23.872Z,2
2022-09-06T09:06:24.782Z,2
2022-09-06T09:08:24.028Z,2
2022-09-06T09:10:24.292Z,2
2022-09-06T09:12:24.303Z,2
2022-09-06T09:14:24.428Z,2
2022-09-06T09:16:24.643Z,2
2022-09-06T09:18:24.569Z,2
2022-09-06T09:20:24.581Z,2
2022-09-06T09:22:23.996Z,2
2022-09-06T09:24:23.955Z,2
2022-09-06T09:26:24.221Z,2
2022-09-06T09:28:24.645Z,2
2022-09-06T09:31:01.506Z,1
2022-09-06T09:32:24.220Z,1
2022-09-06T09:34:24.382Z,1
2022-09-06T09:36:24.462Z,1
2022-09-06T09:38:33.676Z,1
2022-09-06T09:40:24.612Z,1
2022-09-06T09:42:23.876Z,1
2022-09-06T09:44:27.534Z,1
2022-09-06T09:46:23.958Z,1
2022-09-06T09:48:24.744Z,1
2022-09-06T09:50:24.077Z,1
2022-09-06T09:52:24.258Z,1
2022-09-06T09:54:24.499Z,1
2022-09-06T09:56:24.399Z,1
2022-09-06T09:58:24.059Z,1
2022-09-06T10:00:27.194Z,0
2022-09-06T10:02:24.465Z,4
2022-09-06T10:04:55.418Z,4
2022-09-06T10:07:10.408Z,6
2022-09-06T10:08:24.747Z,6
2022-09-06T10:10:24.372Z,6
2022-09-06T10:12:24.426Z,4
2022-09-06T10:14:24.568Z,4
2022-09-06T10:16:24.197Z,4
2022-09-06T10:18:24.142Z,4
2022-09-06T10:20:24.283Z,4
2022-09-06T10:22:24.589Z,4
2022-09-06T10:24:50.824Z,2
2022-09-06T10:26:24.674Z,5
2022-09-06T10:28:34.498Z,5
2022-09-06T10:32:23.672Z,4
2022-09-06T10:34:24.622Z,4
2022-09-06T10:36:23.850Z,4
2022-09-06T10:38:24.730Z,4
2022-09-06T10:40:24.372Z,4
2022-09-06T10:42:24.612Z,5
2022-09-06T10:44:24.271Z,6
2022-09-06T10:46:24.871Z,6
2022-09-06T10:48:26.488Z,2
2022-09-06T10:50:24.475Z,8
2022-09-06T10:52:24.752Z,8
2022-09-06T10:54:24.624Z,5
2022-09-06T10:56:24.277Z,5
2022-09-06T11:02:24.629Z,5
2022-09-06T11:06:26.763Z,2
2022-09-06T11:08:57.790Z,5
2022-09-06T11:10:24.642Z,5
2022-09-06T11:12:24.063Z,2
2022-09-06T11:14:28.264Z,4
2022-09-06T11:16:24.458Z,4
2022-09-06T11:18:24.539Z,1
2022-09-06T11:20:27.486Z,5
2022-09-06T11:22:24.163Z,5
2022-09-06T11:24:24.513Z,4
2022-09-06T11:26:23.732Z,5
2022-09-06T11:28:24.065Z,5
2022-09-06T11:30:24.513Z,5
2022-09-06T11:32:41.094Z,6
2022-09-06T11:36:24.545Z,2
2022-09-06T11:38:24.592Z,8
2022-09-06T11:40:52.970Z,8
2022-09-06T11:42:24.671Z,5
2022-09-06T11:44:24.300Z,5
2022-09-06T11:46:31.291Z,5
2022-09-06T11:48:24.073Z,5
2022-09-06T11:50:24.408Z,5
2022-09-06T11:52:24.610Z,5
2022-09-06T11:54:23.996Z,5
2022-09-06T11:56:24.478Z,5
2022-09-06T11:58:23.904Z,5
2022-09-06T12:00:26.546Z,5
2022-09-06T12:02:24.636Z,5
2022-09-06T12:04:23.803Z,5
2022-09-06T12:06:24.481Z,5
2022-09-06T12:08:24.707Z,6
2022-09-06T12:10:24.021Z,6
2022-09-06T12:12:28.327Z,6
2022-09-06T12:14:23.946Z,6
2022-09-06T12:16:24.651Z,6
2022-09-06T12:18:24.057Z,6
2022-09-06T12:20:24.543Z,7
2022-09-06T12:22:24.102Z,7
2022-09-06T12:24:24.210Z,7
2022-09-06T12:26:24.456Z,6
2022-09-06T12:28:24.148Z,6
2022-09-06T12:30:24.179Z,6
2022-09-06T12:32:24.690Z,9
2022-09-06T12:34:24.313Z,9
2022-09-06T12:36:29.848Z,9
2022-09-06T12:38:24.678Z,6
2022-09-06T12:40:24.671Z,6
2022-09-06T12:42:23.843Z,6
2022-09-06T12:44:24.403Z,6
2022-09-06T12:46:24.932Z,6
2022-09-06T12:48:24.247Z,6
2022-09-06T12:50:23.894Z,6
2022-09-06T12:52:24.294Z,6
2022-09-06T12:54:24.301Z,6
2022-09-06T12:56:24.350Z,6
2022-09-06T12:58:24.320Z,6
2022-09-06T13:00:26.557Z,6
2022-09-06T13:02:24.174Z,6
2022-09-06T13:04:23.864Z,6
2022-09-06T13:06:27.065Z,6
2022-09-06T13:08:24.358Z,6
2022-09-06T13:10:24.080Z,6
2022-09-06T13:12:24.558Z,6
2022-09-06T13:14:25.969Z,6
2022-09-06T13:16:24.852Z,5
2022-09-06T13:18:24.469Z,5
2022-09-06T13:20:24.210Z,5
2022-09-06T13:22:23.677Z,5
2022-09-06T13:24:24.292Z,5
2022-09-06T13:26:24.507Z,5
2022-09-06T13:28:24.756Z,6
2022-09-06T13:30:24.076Z,6
2022-09-06T13:32:24.430Z,6
2022-09-06T13:34:24.674Z,5
2022-09-06T13:36:24.644Z,5
2022-09-06T13:38:24.356Z,5
2022-09-06T13:40:23.970Z,6
2022-09-06T13:42:24.431Z,6
2022-09-06T13:44:24.540Z,6
2022-09-06T13:46:24.772Z,5
2022-09-06T13:48:51.807Z,5
2022-09-06T13:50:27.683Z,5
2022-09-06T13:52:24.077Z,4
2022-09-06T13:54:23.863Z,4
2022-09-06T13:56:24.341Z,4
2022-09-06T13:58:24.364Z,4
2022-09-06T14:00:26.262Z,4
2022-09-06T14:02:24.009Z,4
2022-09-06T14:04:24.268Z,3
2022-09-06T14:06:24.461Z,3
2022-09-06T14:08:24.423Z,3
2022-09-06T14:10:24.281Z,2
2022-09-06T14:12:23.807Z,2
2022-09-06T14:14:24.243Z,2
2022-09-06T14:16:24.880Z,5
2022-09-06T14:18:26.034Z,5
2022-09-06T14:20:24.714Z,5
2022-09-06T14:22:24.263Z,5
2022-09-06T14:24:27.254Z,5
2022-09-06T14:26:23.953Z,5
2022-09-06T14:28:23.948Z,6
2022-09-06T14:30:24.425Z,6
2022-09-06T14:32:23.746Z,6
2022-09-06T14:34:24.099Z,6
2022-09-06T14:36:24.485Z,6
2022-09-06T14:38:24.559Z,6
2022-09-06T14:40:24.459Z,5
2022-09-06T14:42:23.821Z,5
2022-09-06T14:44:24.518Z,5
2022-09-06T14:46:25.204Z,5
2022-09-06T14:48:24.486Z,5
2022-09-06T14:50:24.319Z,5
2022-09-06T14:52:24.386Z,4
2022-09-06T14:54:28.528Z,4
2022-09-06T14:56:24.389Z,4
2022-09-06T14:58:23.761Z,5
2022-09-06T15:00:23.918Z,5
2022-09-06T15:02:24.588Z,5
2022-09-06T15:04:23.892Z,4
2022-09-06T15:06:24.434Z,4
2022-09-06T15:10:24.124Z,5
2022-09-06T15:14:23.844Z,5
2022-09-06T15:18:24.112Z,5
2022-09-06T15:22:23.833Z,2
2022-09-06T15:26:24.565Z,2
2022-09-06T15:30:24.321Z,3
2022-09-06T15:34:24.255Z,5
2022-09-06T15:38:24.567Z,5
2022-09-06T15:42:24.181Z,4
2022-09-06T15:46:24.545Z,5
2022-09-06T15:50:47.561Z,5
2022-09-06T15:54:24.421Z,2
2022-09-06T15:58:24.460Z,2
2022-09-06T16:02:24.281Z,2
2022-09-06T16:06:51.559Z,4
2022-09-06T16:10:23.845Z,4
2022-09-06T16:14:24.546Z,4
2022-09-06T16:18:23.782Z,2
2022-09-06T16:22:24.102Z,4
2022-09-06T16:26:23.840Z,4
2022-09-06T16:30:24.467Z,2
2022-09-06T16:34:24.681Z,4
2022-09-06T16:38:24.964Z,4
2022-09-06T16:42:24.048Z,2
2022-09-06T16:46:24.763Z,4
2022-09-06T16:50:24.632Z,4
2022-09-06T16:54:24.132Z,4
2022-09-06T16:58:24.678Z,1
2022-09-06T17:02:24.770Z,1
2022-09-06T17:06:24.416Z,4
2022-09-06T17:10:24.144Z,1
2022-09-06T17:14:24.715Z,1
2022-09-06T17:18:24.120Z,2
2022-09-06T17:22:23.764Z,4
2022-09-06T17:26:24.180Z,4
2022-09-06T17:30:23.923Z,2
2022-09-06T17:34:24.475Z,2
2022-09-06T17:38:24.526Z,2
2022-09-06T17:42:24.578Z,4
2022-09-06T17:46:28.483Z,4
2022-09-06T17:50:24.192Z,4
2022-09-06T17:54:24.296Z,2
2022-09-06T17:58:24.854Z,2
2022-09-06T18:02:24.091Z,2
2022-09-06T18:06:24.003Z,2
2022-09-06T18:10:23.835Z,2
2022-09-06T18:14:24.187Z,2
2022-09-06T18:18:24.813Z,4
2022-09-06T18:22:24.534Z,4
2022-09-06T18:26:24.335Z,4
2022-09-06T18:30:26.344Z,1
2022-09-06T18:34:24.020Z,2
2022-09-06T18:38:24.368Z,2
2022-09-06T18:42:24.154Z,4
2022-09-06T18:46:24.380Z,2
2022-09-06T18:50:24.018Z,2
2022-09-06T18:54:23.834Z,5
2022-09-06T18:58:24.425Z,4
2022-09-06T19:02:24.597Z,4
2022-09-06T19:06:24.015Z,4
2022-09-06T19:10:24.091Z,5
2022-09-06T19:14:24.405Z,5
2022-09-06T19:18:24.298Z,4
2022-09-06T19:22:23.783Z,4
2022-09-06T19:26:24.485Z,4
2022-09-06T19:30:24.081Z,4
2022-09-06T19:34:24.336Z,4
2022-09-06T19:38:24.442Z,4
2022-09-06T19:42:24.320Z,4
2022-09-06T19:46:23.936Z,6
2022-09-06T19:50:24.329Z,6
2022-09-06T19:54:24.198Z,2
2022-09-06T19:58:24.616Z,2
2022-09-06T20:02:24.429Z,2
2022-09-06T20:06:24.321Z,4
2022-09-06T20:10:24.509Z,2
2022-09-06T20:14:24.127Z,2
2022-09-06T20:18:23.860Z,4
2022-09-06T20:22:23.784Z,5
2022-09-06T20:26:24.122Z,5
2022-09-06T20:30:24.103Z,4
2022-09-06T20:34:24.284Z,2
2022-09-06T20:38:25.898Z,2
2022-09-06T20:42:24.248Z,2
2022-09-06T20:46:24.797Z,2
2022-09-06T20:50:24.678Z,2
2022-09-06T20:54:24.121Z,2
2022-09-06T20:58:24.442Z,2
2022-09-06T21:02:24.370Z,2
2022-09-06T21:06:24.220Z,2
2022-09-06T21:10:24.490Z,1
2022-09-06T21:14:24.457Z,1
2022-09-06T21:18:24.046Z,1
2022-09-06T21:22:23.930Z,1
2022-09-06T21:26:24.683Z,1
2022-09-06T21:30:24.683Z,1
2022-09-06T21:34:28.499Z,1
2022-09-06T21:38:24.491Z,1
2022-09-06T21:42:24.168Z,1
2022-09-06T21:46:26.811Z,1
2022-09-06T21:50:23.916Z,1
2022-09-06T21:54:23.918Z,2
2022-09-06T21:58:24.646Z,2
2022-09-06T22:02:24.932Z,2
2022-09-06T22:06:24.752Z,2
2022-09-06T22:10:24.331Z,2
2022-09-06T22:14:23.693Z,2
2022-09-06T22:18:23.892Z,2
2022-09-06T22:22:23.756Z,2
2022-09-06T22:26:24.453Z,1
2022-09-06T22:30:25.872Z,1
2022-09-06T22:34:24.505Z,1
2022-09-06T22:38:23.805Z,1
2022-09-06T22:42:24.072Z,1
2022-09-06T22:46:24.217Z,1
2022-09-06T22:50:24.197Z,1
2022-09-06T22:54:24.684Z,1
2022-09-06T22:58:24.429Z,2
2022-09-06T23:02:24.152Z,2
2022-09-06T23:06:24.373Z,2
2022-09-06T23:10:24.571Z,2
2022-09-06T23:14:24.302Z,1
2022-09-06T23:18:24.570Z,1
2022-09-06T23:22:23.825Z,1
2022-09-06T23:26:24.212Z,0
2022-09-06T23:30:24.257Z,0
2022-09-06T23:34:24.495Z,0
2022-09-06T23:38:24.618Z,0
2022-09-06T23:42:24.202Z,0
2022-09-06T23:46:24.830Z,0
2022-09-06T23:50:24.012Z,0
2022-09-06T23:54:24.673Z,0
2022-09-06T23:58:24.590Z,0
